Time;durP1;ratioP1;P1;durP2;ratioP2;P2;SDS_P1;SDS_P2;PMS_P1;PMS_P2;Temp;Humidity;BMP_temperature;BMP_pressure;BME280_temperature;BME280_humidity;BME280_pressure;Samples;Min_cycle;Max_cycle;Signal;HPM_P1;HPM_P2
2021/04/22 00:01:57;;;;;;;11.25;3.55;;;9.00;89.50;;;;;;4959157;28;20233;-80
2021/04/22 00:04:23;;;;;;;10.65;3.50;;;8.90;90.00;;;;;;4958178;28;20233;-82
2021/04/22 00:06:50;;;;;;;9.25;3.38;;;8.90;89.20;;;;;;4963480;28;20207;-81
2021/04/22 00:09:18;;;;;;;13.93;3.45;;;8.90;89.30;;;;;;4957285;28;20201;-80
2021/04/22 00:11:44;;;;;;;11.93;3.55;;;8.90;89.30;;;;;;4968620;28;20613;-80
2021/04/22 00:14:11;;;;;;;19.15;4.05;;;8.90;89.30;;;;;;4963751;28;20201;-82
2021/04/22 00:16:39;;;;;;;10.18;3.60;;;8.90;89.20;;;;;;4964214;28;20336;-80
2021/04/22 00:19:06;;;;;;;13.82;4.78;;;8.80;89.00;;;;;;4963840;28;20260;-80
2021/04/22 00:21:32;;;;;;;11.07;4.50;;;8.80;89.00;;;;;;4961466;28;20213;-80
2021/04/22 00:23:59;;;;;;;7.43;3.42;;;8.80;89.10;;;;;;4962950;28;20239;-80
2021/04/22 00:26:25;;;;;;;12.15;3.80;;;8.80;89.30;;;;;;4964701;28;20205;-80
2021/04/22 00:28:51;;;;;;;9.07;3.38;;;8.80;89.40;;;;;;4959169;28;20252;-80
2021/04/22 00:31:18;;;;;;;10.48;5.07;;;8.70;89.40;;;;;;4963115;28;20209;-80
2021/04/22 00:33:45;;;;;;;7.80;4.28;;;8.70;89.40;;;;;;4958344;28;20292;-80
2021/04/22 00:36:13;;;;;;;11.93;4.07;;;8.70;89.40;;;;;;4964020;28;20203;-77
2021/04/22 00:38:39;;;;;;;6.03;3.38;;;8.70;89.60;;;;;;4965581;28;20336;-80
2021/04/22 00:41:06;;;;;;;9.95;3.40;;;8.60;90.00;;;;;;4961584;28;20200;-81
2021/04/22 00:43:32;;;;;;;11.90;4.18;;;8.60;90.00;;;;;;4959360;28;20233;-79
2021/04/22 00:45:59;;;;;;;13.55;4.93;;;8.50;90.00;;;;;;4956759;28;20202;-79
2021/04/22 00:48:26;;;;;;;6.72;4.05;;;8.50;90.00;;;;;;4959580;28;20565;-79
2021/04/22 00:50:54;;;;;;;9.95;3.60;;;8.50;90.00;;;;;;4964577;28;20915;-79
2021/04/22 00:53:21;;;;;;;8.13;5.00;;;8.40;90.10;;;;;;4961555;28;20617;-79
2021/04/22 00:55:48;;;;;;;12.77;3.85;;;8.40;90.20;;;;;;4958595;28;20228;-80
2021/04/22 00:58:15;;;;;;;16.60;4.45;;;8.40;90.20;;;;;;4959545;28;20246;-78
2021/04/22 01:00:45;;;;;;;8.23;3.47;;;8.30;90.30;;;;;;4962888;28;20243;-79
2021/04/22 01:03:12;;;;;;;15.40;4.35;;;8.30;90.40;;;;;;4964141;28;20237;-80
2021/04/22 01:05:44;;;;;;;7.47;4.13;;;8.30;90.50;;;;;;4963947;28;20239;-80
2021/04/22 01:08:12;;;;;;;12.32;3.65;;;8.30;90.50;;;;;;4960534;28;20200;-79
2021/04/22 01:10:38;;;;;;;4.65;3.30;;;8.20;90.50;;;;;;4959778;28;20211;-80
2021/04/22 01:13:05;;;;;;;10.52;4.80;;;8.20;90.60;;;;;;4963103;28;20709;-80
2021/04/22 01:15:32;;;;;;;6.15;3.40;;;8.20;90.60;;;;;;4963671;28;20196;-81
2021/04/22 01:17:59;;;;;;;11.95;3.78;;;8.20;90.60;;;;;;4963039;28;20215;-80
2021/04/22 01:20:27;;;;;;;10.05;4.00;;;8.20;90.60;;;;;;4960357;28;20208;-81
2021/04/22 01:22:56;;;;;;;8.93;4.18;;;8.10;90.50;;;;;;4961060;28;20228;-79
2021/04/22 01:25:25;;;;;;;12.90;4.32;;;8.20;90.60;;;;;;4959435;28;20692;-80
2021/04/22 01:27:51;;;;;;;15.45;4.30;;;8.10;90.50;;;;;;4965523;28;20256;-79
2021/04/22 01:30:20;;;;;;;14.45;4.03;;;8.10;90.50;;;;;;4966949;28;20598;-80
2021/04/22 01:32:46;;;;;;;11.30;4.10;;;8.10;90.50;;;;;;4969245;28;20204;-81
2021/04/22 01:35:15;;;;;;;11.52;4.88;;;8.10;90.50;;;;;;4965271;28;20617;-80
2021/04/22 01:37:42;;;;;;;11.85;4.68;;;8.10;90.50;;;;;;4964553;28;20626;-80
2021/04/22 01:40:12;;;;;;;14.38;4.93;;;8.00;90.60;;;;;;4964798;28;20196;-80
2021/04/22 01:42:38;;;;;;;17.20;4.35;;;8.00;90.70;;;;;;4957082;28;20337;-81
2021/04/22 01:45:07;;;;;;;14.15;3.95;;;8.00;90.70;;;;;;4968117;28;20288;-79
2021/04/22 01:47:34;;;;;;;6.25;3.60;;;7.90;90.70;;;;;;4966569;28;20212;-79
2021/04/22 01:50:00;;;;;;;14.73;4.70;;;7.90;90.80;;;;;;4964342;28;20214;-79
2021/04/22 01:52:26;;;;;;;7.10;3.60;;;7.90;90.80;;;;;;4959215;28;20236;-79
2021/04/22 01:54:53;;;;;;;9.07;4.28;;;7.80;90.90;;;;;;4966895;28;20218;-79
2021/04/22 01:57:20;;;;;;;8.93;3.72;;;7.70;90.90;;;;;;4965511;28;20200;-79
2021/04/22 01:59:47;;;;;;;12.57;7.05;;;7.70;91.00;;;;;;4965733;28;20243;-80
2021/04/22 02:02:13;;;;;;;9.27;4.40;;;7.70;91.00;;;;;;4967826;28;20214;-79
2021/04/22 02:04:40;;;;;;;9.35;4.72;;;7.60;91.00;;;;;;4963375;28;20231;-79
2021/04/22 02:07:07;;;;;;;10.45;4.00;;;7.60;91.10;;;;;;4962073;28;20201;-79
2021/04/22 02:09:33;;;;;;;9.45;3.92;;;7.50;91.10;;;;;;4962798;28;20468;-79
2021/04/22 02:12:00;;;;;;;9.45;3.75;;;7.50;91.10;;;;;;4963324;28;20258;-81
2021/04/22 02:14:27;;;;;;;12.60;4.28;;;7.40;91.20;;;;;;4965254;28;20222;-81
2021/04/22 02:16:54;;;;;;;7.28;3.40;;;7.40;91.30;;;;;;4968504;28;20291;-81
2021/04/22 02:19:20;;;;;;;9.73;4.18;;;7.30;91.30;;;;;;4967055;28;20210;-79
2021/04/22 02:21:46;;;;;;;10.98;3.45;;;7.30;91.40;;;;;;4963981;28;20456;-79
2021/04/22 02:24:13;;;;;;;11.50;3.72;;;7.30;91.40;;;;;;4960251;28;20236;-80
2021/04/22 02:26:39;;;;;;;11.63;4.10;;;7.20;91.40;;;;;;4965654;28;20200;-79
2021/04/22 02:29:06;;;;;;;10.57;3.40;;;7.20;91.50;;;;;;4965445;28;20203;-79
2021/04/22 02:31:33;;;;;;;8.52;3.60;;;7.20;91.50;;;;;;4971521;28;20208;-79
2021/04/22 02:33:59;;;;;;;8.75;4.60;;;7.10;91.60;;;;;;4962170;28;20205;-80
2021/04/22 02:36:25;;;;;;;11.10;4.10;;;7.10;91.60;;;;;;4959806;28;20216;-80
2021/04/22 02:38:52;;;;;;;14.40;6.20;;;7.10;91.60;;;;;;4959714;28;20211;-80
2021/04/22 02:41:18;;;;;;;9.68;3.97;;;7.10;91.60;;;;;;4965358;28;20204;-79
2021/04/22 02:43:45;;;;;;;11.20;4.45;;;7.00;91.60;;;;;;4966715;28;20232;-79
2021/04/22 02:46:11;;;;;;;13.25;4.63;;;7.00;91.60;;;;;;4967230;28;20206;-80
2021/04/22 02:48:38;;;;;;;6.25;4.03;;;7.00;91.60;;;;;;4962725;28;20201;-80
2021/04/22 02:51:05;;;;;;;11.07;4.35;;;6.90;91.70;;;;;;4965024;28;20200;-79
2021/04/22 02:53:31;;;;;;;5.88;3.50;;;6.80;91.80;;;;;;4965856;28;20197;-81
2021/04/22 02:55:57;;;;;;;4.80;3.92;;;6.80;91.80;;;;;;4960182;28;20205;-81
2021/04/22 02:58:26;;;;;;;5.15;3.50;;;6.70;91.90;;;;;;4961473;28;20200;-79
2021/04/22 03:00:53;;;;;;;4.10;3.28;;;6.70;91.80;;;;;;4962966;28;20243;-78
2021/04/22 03:03:20;;;;;;;5.90;3.55;;;6.60;92.20;;;;;;4963397;28;20310;-79
2021/04/22 03:05:47;;;;;;;12.98;4.70;;;6.50;91.80;;;;;;4961231;28;20200;-80
2021/04/22 03:08:14;;;;;;;14.40;4.20;;;6.50;92.20;;;;;;4963073;28;20201;-79
2021/04/22 03:10:41;;;;;;;12.50;4.57;;;6.50;91.90;;;;;;4966914;28;20579;-80
2021/04/22 03:13:07;;;;;;;12.73;4.05;;;6.50;92.00;;;;;;4968111;28;20231;-80
2021/04/22 03:15:34;;;;;;;5.05;3.88;;;6.40;92.10;;;;;;4959791;28;20204;-80
2021/04/22 03:18:01;;;;;;;9.20;5.10;;;6.40;92.10;;;;;;4962308;28;20609;-80
2021/04/22 03:20:28;;;;;;;5.45;3.90;;;6.30;92.10;;;;;;4957068;28;20327;-80
2021/04/22 03:22:55;;;;;;;3.70;3.20;;;6.30;92.10;;;;;;4963939;28;20192;-80
2021/04/22 03:25:23;;;;;;;16.50;4.13;;;6.20;92.00;;;;;;4965714;28;20210;-80
2021/04/22 03:27:50;;;;;;;3.85;3.30;;;6.10;92.00;;;;;;4962008;28;20262;-79
2021/04/22 03:30:18;;;;;;;4.90;3.10;;;6.10;92.10;;;;;;4964631;28;20203;-79
2021/04/22 03:32:45;;;;;;;6.53;3.65;;;6.00;92.10;;;;;;4958637;28;20207;-80
2021/04/22 03:35:13;;;;;;;8.52;4.22;;;6.00;92.20;;;;;;4957604;28;20192;-80
2021/04/22 03:37:40;;;;;;;8.00;4.55;;;5.90;92.10;;;;;;4965725;28;20196;-79
2021/04/22 03:40:11;;;;;;;6.03;3.70;;;5.90;92.30;;;;;;4965690;28;20207;-79
2021/04/22 03:42:37;;;;;;;9.88;3.97;;;5.80;92.30;;;;;;4963877;28;20204;-78
2021/04/22 03:45:05;;;;;;;10.43;5.38;;;5.80;92.50;;;;;;4959006;28;20231;-79
2021/04/22 03:47:32;;;;;;;8.60;3.90;;;5.80;92.50;;;;;;4965882;28;20288;-80
2021/04/22 03:49:58;;;;;;;13.93;4.45;;;5.80;92.60;;;;;;4957714;28;20242;-80
2021/04/22 03:52:25;;;;;;;10.00;4.53;;;5.80;92.70;;;;;;4965230;28;20284;-79
2021/04/22 03:54:52;;;;;;;16.40;4.32;;;5.80;92.70;;;;;;4959956;28;20204;-80
2021/04/22 03:57:19;;;;;;;4.72;3.55;;;5.80;92.80;;;;;;4963086;28;20235;-79
2021/04/22 03:59:46;;;;;;;11.82;3.90;;;5.80;92.80;;;;;;4961608;28;20293;-80
2021/04/22 04:02:12;;;;;;;7.07;4.30;;;5.70;92.80;;;;;;4963193;28;20219;-80
2021/04/22 04:04:38;;;;;;;9.43;4.38;;;5.70;92.90;;;;;;4963934;28;20635;-79
2021/04/22 04:07:05;;;;;;;5.93;4.32;;;5.70;92.90;;;;;;4963564;28;20212;-80
2021/04/22 04:09:31;;;;;;;8.65;3.92;;;5.70;92.90;;;;;;4961579;28;20295;-79
2021/04/22 04:11:58;;;;;;;10.15;3.97;;;5.70;92.90;;;;;;4959884;28;20225;-81
2021/04/22 04:14:25;;;;;;;4.72;4.25;;;5.70;92.90;;;;;;4962504;28;20294;-79
2021/04/22 04:16:51;;;;;;;5.80;3.72;;;5.60;93.00;;;;;;4964452;28;20211;-80
2021/04/22 04:19:17;;;;;;;8.45;4.35;;;5.60;93.30;;;;;;4954598;28;20199;-80
2021/04/22 04:21:44;;;;;;;6.40;5.80;;;5.60;93.00;;;;;;4961976;28;20213;-80
2021/04/22 04:24:11;;;;;;;6.03;4.95;;;5.60;93.00;;;;;;4960361;28;20223;-80
2021/04/22 04:26:37;;;;;;;8.15;4.35;;;5.60;93.10;;;;;;4965853;28;20234;-79
2021/04/22 04:29:04;;;;;;;10.75;4.40;;;5.60;93.20;;;;;;4960979;28;20206;-80
2021/04/22 04:31:31;;;;;;;5.60;3.90;;;5.60;93.30;;;;;;4961811;28;20291;-79
2021/04/22 04:33:58;;;;;;;9.05;4.90;;;5.60;93.60;;;;;;4963744;28;20207;-81
2021/04/22 04:36:24;;;;;;;9.50;3.95;;;5.60;93.30;;;;;;4957130;28;20267;-79
2021/04/22 04:38:51;;;;;;;8.82;3.95;;;5.60;93.30;;;;;;4963133;28;20298;-80
2021/04/22 04:41:17;;;;;;;6.72;3.75;;;5.50;93.30;;;;;;4960638;28;20211;-79
2021/04/22 04:43:44;;;;;;;8.40;3.45;;;5.50;93.30;;;;;;4964286;28;20238;-79
2021/04/22 04:46:10;;;;;;;6.57;4.22;;;5.50;93.40;;;;;;4961351;28;20200;-80
2021/04/22 04:48:37;;;;;;;9.82;3.75;;;5.50;93.50;;;;;;4961560;28;20259;-80
2021/04/22 04:51:04;;;;;;;10.02;4.40;;;5.50;93.50;;;;;;4964295;28;20750;-80
2021/04/22 04:53:30;;;;;;;17.80;5.45;;;5.50;93.50;;;;;;4965488;28;20203;-79
2021/04/22 04:55:56;;;;;;;9.52;4.35;;;5.50;93.60;;;;;;4962045;28;20345;-79
2021/04/22 04:58:23;;;;;;;13.77;5.88;;;5.50;93.70;;;;;;4961183;28;20211;-80
2021/04/22 05:00:49;;;;;;;4.90;3.50;;;5.50;93.70;;;;;;4960052;28;20246;-81
2021/04/22 05:03:16;;;;;;;11.77;4.57;;;5.50;93.80;;;;;;4962133;28;20263;-80
2021/04/22 05:05:43;;;;;;;9.23;4.60;;;5.50;93.90;;;;;;4961739;28;20302;-79
2021/04/22 05:08:09;;;;;;;10.02;4.40;;;5.60;94.00;;;;;;4962338;28;20753;-79
2021/04/22 05:10:36;;;;;;;12.88;5.05;;;5.50;94.10;;;;;;4959624;28;20201;-80
2021/04/22 05:13:02;;;;;;;11.15;4.50;;;5.60;94.20;;;;;;4963671;28;20206;-79
2021/04/22 05:15:29;;;;;;;10.02;4.60;;;5.60;94.20;;;;;;4958072;28;20206;-80
2021/04/22 05:17:55;;;;;;;7.05;3.90;;;5.60;94.10;;;;;;4963768;28;20196;-80
2021/04/22 05:20:21;;;;;;;14.48;4.57;;;5.60;94.20;;;;;;4963610;28;20208;-80
2021/04/22 05:22:49;;;;;;;6.30;4.00;;;5.60;94.30;;;;;;4959038;28;20204;-81
2021/04/22 05:25:15;;;;;;;8.80;4.65;;;5.70;94.50;;;;;;4957582;28;20246;-81
2021/04/22 05:27:41;;;;;;;9.55;4.18;;;5.70;94.60;;;;;;4962076;28;20220;-80
2021/04/22 05:30:09;;;;;;;7.32;5.00;;;5.80;94.80;;;;;;4957655;28;20252;-81
2021/04/22 05:32:35;;;;;;;10.57;4.63;;;5.80;95.00;;;;;;4964685;28;20366;-80
2021/04/22 05:35:02;;;;;;;9.13;5.20;;;5.90;95.00;;;;;;4959377;28;20203;-80
2021/04/22 05:37:28;;;;;;;8.57;5.07;;;6.00;95.10;;;;;;4964279;28;20218;-79
2021/04/22 05:39:56;;;;;;;9.30;5.00;;;6.00;95.50;;;;;;4961221;28;20203;-80
2021/04/22 05:42:22;;;;;;;10.13;4.57;;;6.10;95.40;;;;;;4957608;28;20234;-80
2021/04/22 05:44:48;;;;;;;12.38;5.10;;;6.20;95.40;;;;;;4965078;28;20700;-80
2021/04/22 05:47:15;;;;;;;14.40;6.05;;;6.30;95.50;;;;;;4963220;28;20648;-80
2021/04/22 05:49:41;;;;;;;6.43;5.80;;;6.40;95.50;;;;;;4963652;28;20227;-80
2021/04/22 05:52:08;;;;;;;12.32;5.72;;;6.60;95.60;;;;;;4962695;28;20238;-80
2021/04/22 05:54:34;;;;;;;7.50;5.50;;;6.70;95.50;;;;;;4964030;28;20286;-80
2021/04/22 05:57:02;;;;;;;11.07;6.43;;;6.70;95.50;;;;;;4960730;28;20787;-82
2021/04/22 05:59:28;;;;;;;17.08;6.00;;;6.90;95.60;;;;;;4956549;28;20291;-79
2021/04/22 06:01:54;;;;;;;16.58;5.75;;;6.90;95.80;;;;;;4963566;28;20232;-79
2021/04/22 06:04:21;;;;;;;19.27;6.05;;;7.00;96.10;;;;;;4964790;28;20231;-81
2021/04/22 06:06:47;;;;;;;13.32;6.03;;;7.00;95.60;;;;;;4960580;28;20211;-80
2021/04/22 06:09:14;;;;;;;11.70;5.38;;;7.10;95.70;;;;;;4962838;28;20207;-80
2021/04/22 06:11:41;;;;;;;14.35;5.60;;;7.10;95.50;;;;;;4956592;28;20630;-81
2021/04/22 06:14:08;;;;;;;11.88;6.07;;;7.20;95.50;;;;;;4967238;28;20219;-80
2021/04/22 06:16:35;;;;;;;10.98;6.63;;;7.20;95.50;;;;;;4970537;28;20252;-81
2021/04/22 06:19:01;;;;;;;22.60;6.72;;;7.30;95.40;;;;;;4962574;28;20757;-79
2021/04/22 06:21:28;;;;;;;17.23;6.75;;;7.40;95.50;;;;;;4966639;28;20679;-81
2021/04/22 06:23:54;;;;;;;15.85;6.85;;;7.40;95.50;;;;;;4959564;28;20256;-80
2021/04/22 06:26:22;;;;;;;19.33;6.28;;;7.40;95.40;;;;;;4967250;28;20196;-80
2021/04/22 06:28:49;;;;;;;10.93;6.40;;;7.40;95.40;;;;;;4967274;28;20207;-79
2021/04/22 06:31:16;;;;;;;11.32;5.47;;;7.40;95.30;;;;;;4964559;28;20204;-80
2021/04/22 06:33:43;;;;;;;12.80;6.10;;;7.40;95.40;;;;;;4959495;28;20213;-80
2021/04/22 06:36:09;;;;;;;12.65;7.00;;;7.50;95.30;;;;;;4964577;28;20246;-80
2021/04/22 06:38:37;;;;;;;14.93;6.57;;;7.60;95.40;;;;;;4967460;28;20208;-80
2021/04/22 06:41:03;;;;;;;13.32;6.30;;;7.70;95.40;;;;;;4970198;28;20204;-81
2021/04/22 06:43:30;;;;;;;14.40;6.53;;;7.70;95.30;;;;;;4963480;28;20226;-80
2021/04/22 06:45:56;;;;;;;14.27;5.85;;;7.80;95.10;;;;;;4965160;28;20203;-80
2021/04/22 06:48:23;;;;;;;21.70;6.70;;;7.90;95.10;;;;;;4958002;28;20215;-81
2021/04/22 06:50:49;;;;;;;15.43;6.63;;;7.90;95.00;;;;;;4958771;28;20196;-80
2021/04/22 06:53:16;;;;;;;14.60;6.10;;;8.00;95.00;;;;;;4966541;28;20663;-80
2021/04/22 06:55:42;;;;;;;8.75;6.03;;;8.00;95.00;;;;;;4965383;28;20210;-80
2021/04/22 06:58:09;;;;;;;12.43;5.47;;;8.10;95.00;;;;;;4961641;28;20300;-80
2021/04/22 07:00:37;;;;;;;16.95;5.80;;;8.20;94.90;;;;;;4963850;28;20223;-79
2021/04/22 07:03:05;;;;;;;14.15;5.70;;;8.30;94.70;;;;;;4967310;28;20783;-80
2021/04/22 07:05:32;;;;;;;14.02;6.35;;;8.50;94.60;;;;;;4964524;28;20231;-79
2021/04/22 07:07:58;;;;;;;12.23;5.28;;;8.50;93.10;;;;;;4967147;28;20197;-79
2021/04/22 07:10:25;;;;;;;14.50;5.60;;;8.50;92.60;;;;;;4967383;28;20226;-80
2021/04/22 07:12:52;;;;;;;14.60;4.95;;;8.60;92.70;;;;;;4965776;28;20203;-79
2021/04/22 07:15:20;;;;;;;10.57;5.80;;;8.70;92.70;;;;;;4966596;28;20279;-86
2021/04/22 07:17:46;;;;;;;14.80;5.03;;;8.80;92.40;;;;;;4968502;28;20216;-80
2021/04/22 07:20:16;;;;;;;7.55;3.95;;;8.80;92.20;;;;;;4955775;28;20215;-79
2021/04/22 07:22:43;;;;;;;5.40;3.40;;;8.90;91.60;;;;;;4958056;28;20204;-80
2021/04/22 07:25:12;;;;;;;6.70;4.43;;;8.90;91.40;;;;;;4958642;28;20630;-79
2021/04/22 07:27:39;;;;;;;20.02;4.82;;;8.90;90.60;;;;;;4953515;28;20196;-80
2021/04/22 07:30:07;;;;;;;11.23;5.10;;;8.90;90.80;;;;;;4957452;28;20216;-79
2021/04/22 07:32:34;;;;;;;16.95;5.10;;;9.00;90.60;;;;;;4960707;28;20215;-81
2021/04/22 07:35:01;;;;;;;11.23;3.97;;;9.00;90.70;;;;;;4960454;28;20204;-80
2021/04/22 07:37:27;;;;;;;9.25;4.03;;;9.10;90.10;;;;;;4956774;28;20197;-79
2021/04/22 07:39:55;;;;;;;17.15;5.35;;;9.10;89.90;;;;;;4959867;28;20204;-80
2021/04/22 07:42:21;;;;;;;8.95;3.67;;;9.10;90.00;;;;;;4955552;28;20204;-80
2021/04/22 07:44:48;;;;;;;8.00;3.50;;;9.10;90.10;;;;;;4960148;28;20230;-80
2021/04/22 07:47:14;;;;;;;8.60;3.95;;;9.20;90.40;;;;;;4954600;28;20660;-81
2021/04/22 07:49:42;;;;;;;10.10;4.88;;;9.30;90.40;;;;;;4957169;28;20205;-81
2021/04/22 07:52:09;;;;;;;9.48;5.00;;;9.40;88.80;;;;;;4954839;28;20206;-80
2021/04/22 07:54:36;;;;;;;13.82;4.20;;;9.30;88.60;;;;;;4959590;28;20210;-82
2021/04/22 07:57:04;;;;;;;14.43;4.65;;;9.30;88.20;;;;;;4955985;28;20201;-79
2021/04/22 07:59:30;;;;;;;14.60;3.92;;;9.40;89.00;;;;;;4962193;28;20218;-80
2021/04/22 08:01:56;;;;;;;12.25;4.05;;;9.40;88.00;;;;;;4961003;28;20287;-80
2021/04/22 08:04:23;;;;;;;9.85;4.63;;;9.30;87.70;;;;;;4958516;28;20353;-80
2021/04/22 08:06:49;;;;;;;11.52;3.88;;;9.30;88.50;;;;;;4957209;28;20233;-80
2021/04/22 08:09:15;;;;;;;10.00;3.88;;;9.50;88.80;;;;;;4961467;28;20239;-80
2021/04/22 08:11:42;;;;;;;9.43;3.78;;;9.60;88.80;;;;;;4958688;28;20213;-79
2021/04/22 08:14:09;;;;;;;14.18;4.00;;;9.60;87.50;;;;;;4957272;28;21128;-78
2021/04/22 08:16:36;;;;;;;6.53;3.50;;;9.70;88.20;;;;;;4958880;28;20206;-86
2021/04/22 08:19:04;;;;;;;7.85;4.00;;;9.70;86.50;;;;;;4961678;28;20199;-78
2021/04/22 08:21:31;;;;;;;14.18;4.07;;;9.70;87.40;;;;;;4958924;28;20200;-78
2021/04/22 08:23:57;;;;;;;8.50;4.13;;;9.80;88.40;;;;;;4959360;28;20222;-78
2021/04/22 08:26:24;;;;;;;14.55;4.43;;;9.90;88.60;;;;;;4958449;28;20207;-77
2021/04/22 08:28:51;;;;;;;11.73;4.50;;;10.00;87.40;;;;;;4959376;28;20671;-77
2021/04/22 08:31:22;;;;;;;10.73;3.85;;;10.10;86.40;;;;;;4956280;28;20199;-84
2021/04/22 08:33:52;;;;;;;8.98;3.65;;;10.20;86.60;;;;;;4957425;28;20281;-79
2021/04/22 08:36:19;;;;;;;16.00;5.75;;;10.40;84.90;;;;;;4954770;28;20227;-78
2021/04/22 08:38:46;;;;;;;6.88;3.50;;;10.50;84.40;;;;;;4959371;28;20245;-80
2021/04/22 08:41:13;;;;;;;7.43;4.10;;;10.50;84.20;;;;;;4955310;28;20266;-77
2021/04/22 08:43:40;;;;;;;13.98;4.50;;;10.60;84.50;;;;;;4960828;28;20518;-77
2021/04/22 08:46:08;;;;;;;9.68;5.57;;;10.60;84.90;;;;;;4958755;28;20294;-79
2021/04/22 08:48:36;;;;;;;8.32;4.50;;;10.70;84.00;;;;;;4951556;28;20235;-76
2021/04/22 08:51:06;;;;;;;11.43;4.72;;;10.80;84.20;;;;;;4957876;28;20243;-77
2021/04/22 08:53:37;;;;;;;12.05;4.95;;;10.90;84.00;;;;;;4960764;28;20220;-79
2021/04/22 08:56:04;;;;;;;14.48;4.35;;;11.10;84.80;;;;;;4957992;28;20292;-79
2021/04/22 08:58:31;;;;;;;13.40;4.30;;;11.40;86.10;;;;;;4952933;28;20208;-76
2021/04/22 09:01:00;;;;;;;15.20;5.03;;;11.60;85.30;;;;;;4955791;28;20326;-78
2021/04/22 09:03:27;;;;;;;10.77;4.55;;;11.80;85.30;;;;;;4959587;28;20265;-79
2021/04/22 09:05:55;;;;;;;8.00;4.20;;;12.00;84.80;;;;;;4952162;28;20664;-80
2021/04/22 09:08:32;;;;;;;8.57;3.93;;;12.10;84.50;;;;;;4961747;28;20549;-79
2021/04/22 09:10:58;;;;;;;9.87;4.90;;;12.20;84.50;;;;;;4961474;28;20533;-78
2021/04/22 09:13:26;;;;;;;10.65;4.25;;;12.30;84.30;;;;;;4954966;28;20520;-78
2021/04/22 09:16:01;;;;;;;14.35;4.15;;;12.30;84.80;;;;;;4955519;28;20722;-77
2021/04/22 09:18:28;;;;;;;12.70;4.90;;;12.30;84.80;;;;;;4955882;28;20679;-79
2021/04/22 09:20:56;;;;;;;13.02;4.57;;;12.10;84.50;;;;;;4958874;28;20487;-78
2021/04/22 09:23:25;;;;;;;15.77;4.50;;;12.00;81.50;;;;;;4960338;28;20306;-79
2021/04/22 09:25:55;;;;;;;8.75;4.07;;;11.90;82.80;;;;;;4956126;28;20995;-80
2021/04/22 09:28:22;;;;;;;10.40;4.00;;;11.90;81.60;;;;;;4952904;28;21010;-80
2021/04/22 09:30:49;;;;;;;7.27;3.97;;;11.90;82.00;;;;;;4959674;28;20212;-78
2021/04/22 09:33:23;;;;;;;10.80;4.50;;;11.90;81.60;;;;;;4948617;28;20482;-78
2021/04/22 09:35:51;;;;;;;9.88;3.85;;;11.80;80.30;;;;;;4952248;28;20467;-79
2021/04/22 09:38:18;;;;;;;8.55;4.10;;;11.60;80.10;;;;;;4960065;28;20223;-78
2021/04/22 09:40:46;;;;;;;15.70;4.50;;;11.60;81.30;;;;;;4958795;28;20238;-79
2021/04/22 09:43:14;;;;;;;7.10;3.95;;;11.70;81.20;;;;;;4957167;28;20711;-79
2021/04/22 09:45:43;;;;;;;8.30;3.40;;;11.90;81.80;;;;;;4956097;28;20315;-79
2021/04/22 09:48:21;;;;;;;8.98;4.40;;;12.10;80.90;;;;;;4959939;28;20652;-80
2021/04/22 09:50:48;;;;;;;7.07;4.40;;;12.20;81.20;;;;;;4962031;28;20215;-79
2021/04/22 09:53:18;;;;;;;6.50;4.47;;;12.30;80.90;;;;;;4963764;28;20832;-78
2021/04/22 09:55:46;;;;;;;10.20;4.47;;;12.30;79.20;;;;;;4960608;28;21044;-79
2021/04/22 09:58:23;;;;;;;12.00;3.97;;;12.20;77.60;;;;;;4967044;28;20828;-79
2021/04/22 10:00:49;;;;;;;7.77;3.60;;;12.20;79.30;;;;;;4965780;28;20495;-79
2021/04/22 10:03:16;;;;;;;10.15;4.53;;;12.40;80.00;;;;;;4956783;28;20472;-79
2021/04/22 10:05:42;;;;;;;7.23;4.47;;;12.50;79.60;;;;;;4957531;28;20233;-80
2021/04/22 10:08:11;;;;;;;11.87;3.53;;;12.50;78.10;;;;;;4963369;28;20470;-79
2021/04/22 10:10:39;;;;;;;9.47;3.50;;;12.60;79.00;;;;;;4959545;28;20915;-78
2021/04/22 10:13:08;;;;;;;9.03;3.70;;;12.80;80.70;;;;;;4961915;28;20545;-78
2021/04/22 10:15:50;;;;;;;11.57;4.23;;;13.00;85.70;;;;;;4962975;28;20472;-77
2021/04/22 10:18:17;;;;;;;20.30;5.07;;;13.00;81.90;;;;;;4957408;28;20471;-80
2021/04/22 10:20:43;;;;;;;8.87;3.77;;;12.90;78.70;;;;;;4962920;28;20473;-81
2021/04/22 10:23:11;;;;;;;10.33;4.43;;;12.60;78.10;;;;;;4962693;28;21261;-77
2021/04/22 10:25:41;;;;;;;4.50;3.50;;;12.60;79.40;;;;;;4963924;28;20499;-78
2021/04/22 10:28:10;;;;;;;9.60;4.00;;;12.70;79.70;;;;;;4958872;28;20572;-78
2021/04/22 10:30:39;;;;;;;11.10;4.53;;;12.70;78.90;;;;;;4957717;28;20463;-81
2021/04/22 10:33:06;;;;;;;14.60;4.20;;;12.80;80.40;;;;;;4963801;28;20215;-79
2021/04/22 10:35:34;;;;;;;5.50;4.20;;;13.00;81.60;;;;;;4961546;28;20493;-78
2021/04/22 10:38:03;;;;;;;10.30;4.47;;;13.10;82.10;;;;;;4962526;28;20481;-78
2021/04/22 10:40:31;;;;;;;11.70;5.03;;;13.10;81.10;;;;;;4961961;28;20471;-80
2021/04/22 10:43:00;;;;;;;8.13;4.07;;;12.90;81.00;;;;;;4956786;28;21010;-78
2021/04/22 10:45:30;;;;;;;10.37;6.40;;;12.80;81.50;;;;;;4959721;28;20490;-78
2021/04/22 10:47:56;;;;;;;10.83;4.30;;;12.90;82.10;;;;;;4959385;28;21000;-77
2021/04/22 10:50:26;;;;;;;16.57;5.00;;;13.00;82.30;;;;;;4953047;28;20463;-77
2021/04/22 10:52:54;;;;;;;13.40;4.50;;;13.10;82.60;;;;;;4960660;28;20991;-78
2021/04/22 10:55:23;;;;;;;9.70;4.60;;;13.10;82.70;;;;;;4958875;28;20473;-80
2021/04/22 10:57:51;;;;;;;10.47;4.50;;;13.10;82.50;;;;;;4965117;28;20464;-83
2021/04/22 11:00:21;;;;;;;8.30;4.00;;;13.10;81.60;;;;;;4961384;28;20529;-82
2021/04/22 11:02:51;;;;;;;9.57;4.80;;;13.20;81.20;;;;;;4957004;28;20479;-79
2021/04/22 11:05:20;;;;;;;11.47;4.63;;;13.10;80.90;;;;;;4957050;28;20562;-78
2021/04/22 11:07:58;;;;;;;8.03;4.63;;;13.10;81.10;;;;;;4958577;28;20466;-79
2021/04/22 11:10:35;;;;;;;6.83;4.30;;;13.10;81.10;;;;;;4959479;28;20476;-78
2021/04/22 11:13:13;;;;;;;7.97;4.13;;;13.20;81.50;;;;;;4961545;28;20528;-80
2021/04/22 11:15:41;;;;;;;7.97;5.57;;;13.30;80.10;;;;;;4964073;28;21297;-80
2021/04/22 11:18:12;;;;;;;10.40;4.67;;;13.40;80.40;;;;;;4963135;28;20520;-80
2021/04/22 11:20:40;;;;;;;8.70;4.77;;;13.40;80.50;;;;;;4958416;28;20573;-79
2021/04/22 11:23:15;;;;;;;11.90;4.43;;;13.40;78.20;;;;;;4960927;28;20541;-79
2021/04/22 11:25:50;;;;;;;5.23;4.20;;;13.30;77.10;;;;;;4954477;28;21485;-79
2021/04/22 11:28:27;;;;;;;9.47;4.33;;;13.30;77.20;;;;;;4958453;28;20456;-79
2021/04/22 11:31:04;;;;;;;7.17;4.63;;;13.30;76.40;;;;;;4969375;28;20497;-80
2021/04/22 11:33:32;;;;;;;10.80;3.80;;;13.20;75.80;;;;;;4958492;28;20899;-80
2021/04/22 11:36:09;;;;;;;11.20;4.80;;;13.30;77.50;;;;;;4960967;28;20970;-80
2021/04/22 11:38:35;;;;;;;9.63;4.40;;;13.30;77.50;;;;;;4954748;28;20466;-78
2021/04/22 11:41:06;;;;;;;7.00;4.50;;;13.40;77.50;;;;;;4964648;28;20460;-80
2021/04/22 11:43:33;;;;;;;8.47;4.60;;;13.50;75.30;;;;;;4960367;28;20471;-81
2021/04/22 11:45:59;;;;;;;8.27;4.47;;;13.50;76.80;;;;;;4958545;28;20921;-80
2021/04/22 11:48:36;;;;;;;7.70;4.37;;;13.60;76.00;;;;;;4955807;28;20882;-80
2021/04/22 11:51:04;;;;;;;9.47;4.47;;;13.60;74.90;;;;;;4960864;28;20571;-81
2021/04/22 11:53:35;;;;;;;10.37;5.00;;;13.50;76.40;;;;;;4953554;28;20460;-81
2021/04/22 11:56:03;;;;;;;14.97;5.30;;;13.50;77.30;;;;;;4959408;28;20813;-81
2021/04/22 11:58:30;;;;;;;14.83;5.40;;;13.60;77.60;;;;;;4955503;28;20519;-79
2021/04/22 12:00:59;;;;;;;9.07;5.07;;;13.70;78.40;;;;;;4961886;28;20609;-80
2021/04/22 12:03:29;;;;;;;12.33;5.40;;;13.80;79.20;;;;;;4956385;28;20499;-79
2021/04/22 12:05:58;;;;;;;8.53;5.13;;;13.70;78.30;;;;;;4959091;28;20500;-79
2021/04/22 12:08:30;;;;;;;9.33;5.40;;;13.70;78.50;;;;;;4958371;28;20680;-81
2021/04/22 12:10:57;;;;;;;10.13;4.77;;;13.80;79.20;;;;;;4960579;28;20512;-80
2021/04/22 12:13:25;;;;;;;6.47;4.97;;;13.80;79.80;;;;;;4960059;28;20558;-80
2021/04/22 12:15:55;;;;;;;10.67;4.47;;;13.80;79.50;;;;;;4956223;28;20515;-80
2021/04/22 12:18:22;;;;;;;8.80;4.47;;;13.70;78.50;;;;;;4956447;28;20511;-80
2021/04/22 12:20:49;;;;;;;10.90;5.00;;;13.70;78.70;;;;;;4959897;28;20571;-80
2021/04/22 12:23:26;;;;;;;14.03;5.00;;;13.70;79.30;;;;;;4954020;28;20469;-80
2021/04/22 12:25:53;;;;;;;10.10;5.07;;;13.70;79.50;;;;;;4955930;28;21101;-81
2021/04/22 12:28:19;;;;;;;9.03;4.20;;;13.80;80.20;;;;;;4953768;28;20540;-80
2021/04/22 12:30:47;;;;;;;7.47;5.17;;;13.90;80.40;;;;;;4955301;28;20760;-80
2021/04/22 12:33:16;;;;;;;7.03;4.70;;;13.90;76.70;;;;;;4957648;28;20467;-80
2021/04/22 12:35:44;;;;;;;8.73;5.30;;;13.80;75.20;;;;;;4960396;28;20480;-80
2021/04/22 12:38:14;;;;;;;12.50;5.27;;;13.80;75.50;;;;;;4957034;28;20525;-79
2021/04/22 12:40:42;;;;;;;17.10;6.63;;;13.80;75.90;;;;;;4948704;28;20509;-79
2021/04/22 12:43:10;;;;;;;11.33;5.60;;;13.90;77.10;;;;;;4955114;28;20523;-80
2021/04/22 12:45:37;;;;;;;7.73;5.20;;;13.80;76.90;;;;;;4959155;28;20500;-79
2021/04/22 12:48:06;;;;;;;7.07;5.00;;;13.80;77.40;;;;;;4959179;28;20614;-79
2021/04/22 12:50:40;;;;;;;8.73;5.60;;;13.90;77.80;;;;;;4960241;28;20485;-79